sensor_id;sensor_type;location;lat;lon;timestamp;pressure;altitude;pressure_sealevel;temperature;humidity
28648;BME280;17137;51.494;-0.262;2023-04-19T15:15:14;64275.46;;;21.72;57.58
28648;BME280;17137;51.494;-0.262;2023-04-19T15:15:44;50165.56;;;-145.72;38.25
28648;BME280;17137;51.494;-0.262;2023-04-19T15:16:14;50172.34;;;-145.72;38.14
28648;BME280;17137;51.494;-0.262;2023-04-19T15:16:44;50176.77;;;-145.72;37.81
28648;BME280;17137;51.494;-0.262;2023-04-19T15:17:15;50171.23;;;-145.72;37.80
28648;BME280;17137;51.494;-0.262;2023-04-19T15:17:45;50176.16;;;-145.72;37.82
28648;BME280;17137;51.494;-0.262;2023-04-19T15:18:15;50181.70;;;-145.72;37.61
28648;BME280;17137;51.494;-0.262;2023-04-19T15:18:45;50183.43;;;-145.72;37.84
28648;BME280;17137;51.494;-0.262;2023-04-19T15:19:15;50176.65;;;-145.72;37.78
28648;BME280;17137;51.494;-0.262;2023-04-19T15:19:46;50179.12;;;-145.72;37.77
28648;BME280;17137;51.494;-0.262;2023-04-19T15:20:16;50186.63;;;-145.72;37.77
28648;BME280;17137;51.494;-0.262;2023-04-19T15:20:46;50180.59;;;-145.72;38.02
28648;BME280;17137;51.494;-0.262;2023-04-19T15:21:17;50187.87;;;-145.72;38.33
28648;BME280;17137;51.494;-0.262;2023-04-19T15:21:48;50196.87;;;-145.72;38.00
28648;BME280;17137;51.494;-0.262;2023-04-19T15:22:18;50192.55;;;-145.72;37.95
28648;BME280;17137;51.494;-0.262;2023-04-19T15:22:48;50189.22;;;-145.72;38.12
28648;BME280;17137;51.494;-0.262;2023-04-19T15:23:21;50198.34;;;-145.72;38.24
28648;BME280;17137;51.494;-0.262;2023-04-19T15:23:52;50205.25;;;-145.72;38.41
28648;BME280;17137;51.494;-0.262;2023-04-19T15:24:22;50193.17;;;-145.72;38.36
28648;BME280;17137;51.494;-0.262;2023-04-19T15:24:52;50201.30;;;-145.72;38.36
28648;BME280;17137;51.494;-0.262;2023-04-19T15:25:23;50189.84;;;-145.72;38.14
28648;BME280;17137;51.494;-0.262;2023-04-19T15:25:54;50190.09;;;-145.72;38.04
28648;BME280;17137;51.494;-0.262;2023-04-19T15:26:24;50197.61;;;-145.72;38.22
28648;BME280;17137;51.494;-0.262;2023-04-19T15:26:54;50204.51;;;-145.72;38.38
28648;BME280;17137;51.494;-0.262;2023-04-19T15:27:24;50208.58;;;-145.72;38.60
28648;BME280;17137;51.494;-0.262;2023-04-19T15:27:54;50221.03;;;-145.72;38.74
28648;BME280;17137;51.494;-0.262;2023-04-19T15:28:25;50212.03;;;-145.72;38.86
28648;BME280;17137;51.494;-0.262;2023-04-19T15:28:56;50201.43;;;-145.72;38.80
28648;BME280;17137;51.494;-0.262;2023-04-19T15:29:26;50208.58;;;-145.72;39.21
28648;BME280;17137;51.494;-0.262;2023-04-19T15:29:56;50210.30;;;-145.72;39.39
28648;BME280;17137;51.494;-0.262;2023-04-19T15:30:27;50202.91;;;-145.72;39.26
28648;BME280;17137;51.494;-0.262;2023-04-19T15:30:59;50202.91;;;-145.72;39.27
28648;BME280;17137;51.494;-0.262;2023-04-19T15:31:30;50210.79;;;-145.72;39.19
28648;BME280;17137;51.494;-0.262;2023-04-19T15:32:01;50212.89;;;-145.72;39.22
28648;BME280;17137;51.494;-0.262;2023-04-19T15:32:31;50196.87;;;-145.72;39.16
28648;BME280;17137;51.494;-0.262;2023-04-19T15:33:06;50205.62;;;-145.72;39.14
28648;BME280;17137;51.494;-0.262;2023-04-19T15:33:36;50214.74;;;-145.72;39.07
28648;BME280;17137;51.494;-0.262;2023-04-19T15:34:06;50215.11;;;-145.72;38.81
28648;BME280;17137;51.494;-0.262;2023-04-19T15:34:37;50201.30;;;-145.72;39.02
28648;BME280;17137;51.494;-0.262;2023-04-19T15:35:08;50202.54;;;-145.72;38.98
28648;BME280;17137;51.494;-0.262;2023-04-19T15:35:38;50216.83;;;-145.72;39.07
28648;BME280;17137;51.494;-0.262;2023-04-19T15:36:08;50214.86;;;-145.72;39.14
28648;BME280;17137;51.494;-0.262;2023-04-19T15:36:38;50214.86;;;-145.72;39.30
28648;BME280;17137;51.494;-0.262;2023-04-19T15:37:08;50219.79;;;-145.72;39.45
28648;BME280;17137;51.494;-0.262;2023-04-19T15:37:39;50227.19;;;-145.72;39.44
28648;BME280;17137;51.494;-0.262;2023-04-19T15:38:09;50210.67;;;-145.72;39.37
28648;BME280;17137;51.494;-0.262;2023-04-19T15:38:39;50206.60;;;-145.72;39.62
28648;BME280;17137;51.494;-0.262;2023-04-19T15:39:09;50217.70;;;-145.72;39.69
28648;BME280;17137;51.494;-0.262;2023-04-19T15:39:39;50223.24;;;-145.72;39.49
28648;BME280;17137;51.494;-0.262;2023-04-19T15:40:11;50208.95;;;-145.72;39.46
28648;BME280;17137;51.494;-0.262;2023-04-19T15:40:41;50220.04;;;-145.72;39.74
28648;BME280;17137;51.494;-0.262;2023-04-19T15:41:11;50219.67;;;-145.72;39.54
28648;BME280;17137;51.494;-0.262;2023-04-19T15:41:41;50219.18;;;-145.72;39.49
28648;BME280;17137;51.494;-0.262;2023-04-19T15:42:11;50223.61;;;-145.72;39.63
28648;BME280;17137;51.494;-0.262;2023-04-19T15:42:42;50214.49;;;-145.72;39.55
28648;BME280;17137;51.494;-0.262;2023-04-19T15:43:12;50224.97;;;-145.72;39.63
28648;BME280;17137;51.494;-0.262;2023-04-19T15:43:42;50219.92;;;-145.72;39.70
28648;BME280;17137;51.494;-0.262;2023-04-19T15:44:12;50230.27;;;-145.72;39.89
28648;BME280;17137;51.494;-0.262;2023-04-19T15:44:42;50230.89;;;-145.72;39.94
28648;BME280;17137;51.494;-0.262;2023-04-19T15:45:13;50221.89;;;-145.72;39.92
28648;BME280;17137;51.494;-0.262;2023-04-19T15:45:43;50221.03;;;-145.72;40.04
28648;BME280;17137;51.494;-0.262;2023-04-19T15:46:14;50224.72;;;-145.72;40.25
28648;BME280;17137;51.494;-0.262;2023-04-19T15:46:44;50222.87;;;-145.72;40.20
28648;BME280;17137;51.494;-0.262;2023-04-19T15:47:14;50223.74;;;-145.72;40.15
28648;BME280;17137;51.494;-0.262;2023-04-19T15:47:44;50209.56;;;-145.72;40.18
28648;BME280;17137;51.494;-0.262;2023-04-19T15:48:15;50225.83;;;-145.72;39.94
28648;BME280;17137;51.494;-0.262;2023-04-19T15:48:45;50210.18;;;-145.72;39.96
28648;BME280;17137;51.494;-0.262;2023-04-19T15:49:15;50219.42;;;-145.72;39.73
28648;BME280;17137;51.494;-0.262;2023-04-19T15:49:46;50223.37;;;-145.72;39.72
28648;BME280;17137;51.494;-0.262;2023-04-19T15:50:16;50212.27;;;-145.72;39.68
28648;BME280;17137;51.494;-0.262;2023-04-19T15:50:46;50213.51;;;-145.72;39.53
28648;BME280;17137;51.494;-0.262;2023-04-19T15:51:17;50208.21;;;-145.72;39.44
28648;BME280;17137;51.494;-0.262;2023-04-19T15:51:47;50217.20;;;-145.72;39.35
28648;BME280;17137;51.494;-0.262;2023-04-19T15:52:17;50211.66;;;-145.72;39.00
28648;BME280;17137;51.494;-0.262;2023-04-19T15:52:52;50224.23;;;-145.72;38.73
28648;BME280;17137;51.494;-0.262;2023-04-19T15:53:23;50212.40;;;-145.72;38.79
28648;BME280;17137;51.494;-0.262;2023-04-19T15:53:53;50216.10;;;-145.72;38.80
28648;BME280;17137;51.494;-0.262;2023-04-19T15:54:23;50216.83;;;-145.72;38.70
28648;BME280;17137;51.494;-0.262;2023-04-19T15:54:53;50224.23;;;-145.72;38.69
28648;BME280;17137;51.494;-0.262;2023-04-19T15:55:23;50224.23;;;-145.72;38.40
28648;BME280;17137;51.494;-0.262;2023-04-19T15:55:54;50222.50;;;-145.72;38.62
28648;BME280;17137;51.494;-0.262;2023-04-19T15:56:24;50216.96;;;-145.72;38.66
28648;BME280;17137;51.494;-0.262;2023-04-19T15:56:54;50219.79;;;-145.72;38.69
28648;BME280;17137;51.494;-0.262;2023-04-19T15:57:24;50232.37;;;-145.72;38.68
28648;BME280;17137;51.494;-0.262;2023-04-19T15:57:54;50217.70;;;-145.72;38.49
28648;BME280;17137;51.494;-0.262;2023-04-19T15:58:24;50225.96;;;-145.72;38.50
28648;BME280;17137;51.494;-0.262;2023-04-19T15:58:55;50218.56;;;-145.72;38.47
28648;BME280;17137;51.494;-0.262;2023-04-19T15:59:25;50223.37;;;-145.72;38.30
28648;BME280;17137;51.494;-0.262;2023-04-19T15:59:55;50226.70;;;-145.72;38.29
28648;BME280;17137;51.494;-0.262;2023-04-19T16:00:26;50247.28;;;-145.72;38.57
28648;BME280;17137;51.494;-0.262;2023-04-19T16:00:56;50235.32;;;-145.72;38.49
28648;BME280;17137;51.494;-0.262;2023-04-19T16:01:26;50232.74;;;-145.72;38.40
28648;BME280;17137;51.494;-0.262;2023-04-19T16:01:57;50232.24;;;-145.72;38.36
28648;BME280;17137;51.494;-0.262;2023-04-19T16:02:27;50226.20;;;-145.72;38.50
28648;BME280;17137;51.494;-0.262;2023-04-19T16:02:57;50230.52;;;-145.72;38.37
28648;BME280;17137;51.494;-0.262;2023-04-19T16:03:27;50227.31;;;-145.72;38.36
28648;BME280;17137;51.494;-0.262;2023-04-19T16:03:58;50229.28;;;-145.72;38.36
28648;BME280;17137;51.494;-0.262;2023-04-19T16:04:28;50224.48;;;-145.72;38.48
28648;BME280;17137;51.494;-0.262;2023-04-19T16:04:58;50231.87;;;-145.72;38.57
28648;BME280;17137;51.494;-0.262;2023-04-19T16:05:28;50231.50;;;-145.72;38.37
28648;BME280;17137;51.494;-0.262;2023-04-19T16:05:59;50239.15;;;-145.72;38.56
28648;BME280;17137;51.494;-0.262;2023-04-19T16:06:29;50238.78;;;-145.72;38.57
28648;BME280;17137;51.494;-0.262;2023-04-19T16:07:00;50233.23;;;-145.72;38.08
28648;BME280;17137;51.494;-0.262;2023-04-19T16:07:30;50226.33;;;-145.72;37.89
28648;BME280;17137;51.494;-0.262;2023-04-19T16:08:01;50227.31;;;-145.72;37.91
28648;BME280;17137;51.494;-0.262;2023-04-19T16:08:32;50244.20;;;-145.72;37.65
28648;BME280;17137;51.494;-0.262;2023-04-19T16:09:03;50233.23;;;-145.72;37.39
28648;BME280;17137;51.494;-0.262;2023-04-19T16:09:33;50235.32;;;-145.72;37.07
28648;BME280;17137;51.494;-0.262;2023-04-19T16:10:04;50222.38;;;-145.72;37.13
28648;BME280;17137;51.494;-0.262;2023-04-19T16:10:34;50238.90;;;-145.72;37.04
28648;BME280;17137;51.494;-0.262;2023-04-19T16:11:05;50224.35;;;-145.72;36.82
28648;BME280;17137;51.494;-0.262;2023-04-19T16:11:35;50233.23;;;-145.72;36.88
28648;BME280;17137;51.494;-0.262;2023-04-19T16:12:05;50219.30;;;-145.72;36.90
28648;BME280;17137;51.494;-0.262;2023-04-19T16:12:36;50217.08;;;-145.72;36.93
28648;BME280;17137;51.494;-0.262;2023-04-19T16:13:06;50220.04;;;-145.72;37.00
28648;BME280;17137;51.494;-0.262;2023-04-19T16:13:36;50223.49;;;-145.72;36.89
28648;BME280;17137;51.494;-0.262;2023-04-19T16:14:07;50239.52;;;-145.72;36.92
28648;BME280;17137;51.494;-0.262;2023-04-19T16:14:37;50237.42;;;-145.72;37.02
28648;BME280;17137;51.494;-0.262;2023-04-19T16:15:08;50233.35;;;-145.72;36.92
28648;BME280;17137;51.494;-0.262;2023-04-19T16:15:38;50252.09;;;-145.72;37.05
28648;BME280;17137;51.494;-0.262;2023-04-19T16:16:09;50245.93;;;-145.72;37.18
28648;BME280;17137;51.494;-0.262;2023-04-19T16:16:39;50236.56;;;-145.72;37.32
28648;BME280;17137;51.494;-0.262;2023-04-19T16:17:09;50236.80;;;-145.72;37.17
28648;BME280;17137;51.494;-0.262;2023-04-19T16:17:39;50246.79;;;-145.72;36.95
28648;BME280;17137;51.494;-0.262;2023-04-19T16:18:10;50229.65;;;-145.72;36.88
28648;BME280;17137;51.494;-0.262;2023-04-19T16:18:41;50226.94;;;-145.72;36.80
28648;BME280;17137;51.494;-0.262;2023-04-19T16:19:11;50234.83;;;-145.72;36.68
28648;BME280;17137;51.494;-0.262;2023-04-19T16:19:41;50231.01;;;-145.72;36.55
28648;BME280;17137;51.494;-0.262;2023-04-19T16:20:11;50222.14;;;-145.72;36.31
28648;BME280;17137;51.494;-0.262;2023-04-19T16:20:41;50219.79;;;-145.72;36.32
28648;BME280;17137;51.494;-0.262;2023-04-19T16:21:12;50221.77;;;-145.72;36.30
28648;BME280;17137;51.494;-0.262;2023-04-19T16:21:42;50239.39;;;-145.72;36.05
28648;BME280;17137;51.494;-0.262;2023-04-19T16:22:12;50236.68;;;-145.72;35.82
28648;BME280;17137;51.494;-0.262;2023-04-19T16:22:42;50240.87;;;-145.72;35.61
28648;BME280;17137;51.494;-0.262;2023-04-19T16:23:12;50241.61;;;-145.72;35.72
28648;BME280;17137;51.494;-0.262;2023-04-19T16:23:43;50232.24;;;-145.72;35.91
28648;BME280;17137;51.494;-0.262;2023-04-19T16:24:13;50247.53;;;-145.72;36.00
28648;BME280;17137;51.494;-0.262;2023-04-19T16:24:43;50239.52;;;-145.72;36.10
28648;BME280;17137;51.494;-0.262;2023-04-19T16:25:13;50255.17;;;-145.72;36.42
28648;BME280;17137;51.494;-0.262;2023-04-19T16:25:44;50242.84;;;-145.72;36.53
28648;BME280;17137;51.494;-0.262;2023-04-19T16:26:14;50249.38;;;-145.72;36.57
28648;BME280;17137;51.494;-0.262;2023-04-19T16:26:44;50233.23;;;-145.72;36.50
28648;BME280;17137;51.494;-0.262;2023-04-19T16:27:15;50257.02;;;-145.72;36.51
28648;BME280;17137;51.494;-0.262;2023-04-19T16:27:50;50253.94;;;-145.72;36.50
28648;BME280;17137;51.494;-0.262;2023-04-19T16:28:20;50261.58;;;-145.72;36.41
28648;BME280;17137;51.494;-0.262;2023-04-19T16:28:50;50257.88;;;-145.72;36.45
28648;BME280;17137;51.494;-0.262;2023-04-19T16:29:20;50247.16;;;-145.72;36.43
28648;BME280;17137;51.494;-0.262;2023-04-19T16:29:50;50248.02;;;-145.72;36.41
28648;BME280;17137;51.494;-0.262;2023-04-19T16:30:21;50248.88;;;-145.72;36.44
28648;BME280;17137;51.494;-0.262;2023-04-19T16:30:51;50243.09;;;-145.72;36.43
28648;BME280;17137;51.494;-0.262;2023-04-19T16:31:21;50246.05;;;-145.72;36.62
28648;BME280;17137;51.494;-0.262;2023-04-19T16:31:52;50244.32;;;-145.72;36.58
28648;BME280;17137;51.494;-0.262;2023-04-19T16:32:22;50259.24;;;-145.72;36.58
28648;BME280;17137;51.494;-0.262;2023-04-19T16:32:53;50247.65;;;-145.72;36.60
28648;BME280;17137;51.494;-0.262;2023-04-19T16:33:24;50256.03;;;-145.72;36.78
28648;BME280;17137;51.494;-0.262;2023-04-19T16:33:54;50253.57;;;-145.72;36.96
28648;BME280;17137;51.494;-0.262;2023-04-19T16:34:24;50244.69;;;-145.72;37.02
28648;BME280;17137;51.494;-0.262;2023-04-19T16:34:54;50255.66;;;-145.72;37.02
28648;BME280;17137;51.494;-0.262;2023-04-19T16:35:25;50252.34;;;-145.72;37.06
28648;BME280;17137;51.494;-0.262;2023-04-19T16:35:55;50250.98;;;-145.72;37.21
28648;BME280;17137;51.494;-0.262;2023-04-19T16:36:25;50249.25;;;-145.72;37.28
28648;BME280;17137;51.494;-0.262;2023-04-19T16:36:56;50244.94;;;-145.72;37.39
28648;BME280;17137;51.494;-0.262;2023-04-19T16:37:26;50260.59;;;-145.72;37.43
28648;BME280;17137;51.494;-0.262;2023-04-19T16:37:56;50246.05;;;-145.72;37.54
28648;BME280;17137;51.494;-0.262;2023-04-19T16:38:26;50247.65;;;-145.72;37.57
28648;BME280;17137;51.494;-0.262;2023-04-19T16:38:57;50249.38;;;-145.72;37.62
28648;BME280;17137;51.494;-0.262;2023-04-19T16:39:27;50250.86;;;-145.72;37.65
28648;BME280;17137;51.494;-0.262;2023-04-19T16:39:57;50247.65;;;-145.72;37.43
28648;BME280;17137;51.494;-0.262;2023-04-19T16:40:28;50244.08;;;-145.72;37.11
28648;BME280;17137;51.494;-0.262;2023-04-19T16:40:58;50260.59;;;-145.72;36.71
28648;BME280;17137;51.494;-0.262;2023-04-19T16:41:28;50251.10;;;-145.72;35.76
28648;BME280;17137;51.494;-0.262;2023-04-19T16:41:59;50233.60;;;-145.72;35.64
28648;BME280;17137;51.494;-0.262;2023-04-19T16:42:29;50249.87;;;-145.72;35.59
28648;BME280;17137;51.494;-0.262;2023-04-19T16:42:59;50246.79;;;-145.72;35.52
28648;BME280;17137;51.494;-0.262;2023-04-19T16:43:29;50253.69;;;-145.72;35.30
28648;BME280;17137;51.494;-0.262;2023-04-19T16:43:59;50255.66;;;-145.72;35.22
28648;BME280;17137;51.494;-0.262;2023-04-19T16:44:30;50250.98;;;-145.72;34.99
28648;BME280;17137;51.494;-0.262;2023-04-19T16:45:00;50262.07;;;-145.72;34.10
28648;BME280;17137;51.494;-0.262;2023-04-19T16:45:30;50256.65;;;-145.72;34.04
28648;BME280;17137;51.494;-0.262;2023-04-19T16:46:00;50247.90;;;-145.72;34.36
28648;BME280;17137;51.494;-0.262;2023-04-19T16:46:30;50261.21;;;-145.72;34.43
28648;BME280;17137;51.494;-0.262;2023-04-19T16:47:00;50251.10;;;-145.72;34.39
28648;BME280;17137;51.494;-0.262;2023-04-19T16:47:31;50263.06;;;-145.72;34.45
28648;BME280;17137;51.494;-0.262;2023-04-19T16:48:01;50264.66;;;-145.72;34.53
28648;BME280;17137;51.494;-0.262;2023-04-19T16:48:31;50254.92;;;-145.72;34.60
28648;BME280;17137;51.494;-0.262;2023-04-19T16:49:02;50257.39;;;-145.72;34.70
28648;BME280;17137;51.494;-0.262;2023-04-19T16:49:32;50261.46;;;-145.72;34.79
28648;BME280;17137;51.494;-0.262;2023-04-19T16:50:04;50261.95;;;-145.72;34.75
28648;BME280;17137;51.494;-0.262;2023-04-19T16:50:35;50259.49;;;-145.72;34.69
28648;BME280;17137;51.494;-0.262;2023-04-19T16:51:05;50267.25;;;-145.72;34.66
28648;BME280;17137;51.494;-0.262;2023-04-19T16:51:35;50262.81;;;-145.72;34.45
28648;BME280;17137;51.494;-0.262;2023-04-19T16:52:06;50262.81;;;-145.72;34.59
28648;BME280;17137;51.494;-0.262;2023-04-19T16:52:36;50268.24;;;-145.72;34.64
28648;BME280;17137;51.494;-0.262;2023-04-19T16:53:06;50263.31;;;-145.72;34.62
28648;BME280;17137;51.494;-0.262;2023-04-19T16:53:36;50257.14;;;-145.72;34.58
28648;BME280;17137;51.494;-0.262;2023-04-19T16:54:07;50245.43;;;-145.72;34.87
28648;BME280;17137;51.494;-0.262;2023-04-19T16:54:37;50247.40;;;-145.72;35.12
28648;BME280;17137;51.494;-0.262;2023-04-19T16:55:08;50256.65;;;-145.72;35.24
28648;BME280;17137;51.494;-0.262;2023-04-19T16:55:38;50258.87;;;-145.72;35.02
28648;BME280;17137;51.494;-0.262;2023-04-19T16:56:08;50263.55;;;-145.72;35.23
28648;BME280;17137;51.494;-0.262;2023-04-19T16:56:38;50262.07;;;-145.72;35.16
28648;BME280;17137;51.494;-0.262;2023-04-19T16:57:09;50263.06;;;-145.72;35.29
28648;BME280;17137;51.494;-0.262;2023-04-19T16:57:39;50267.13;;;-145.72;35.45
28648;BME280;17137;51.494;-0.262;2023-04-19T16:58:09;50258.75;;;-145.72;35.59
28648;BME280;17137;51.494;-0.262;2023-04-19T16:58:40;50266.14;;;-145.72;35.57
28648;BME280;17137;51.494;-0.262;2023-04-19T16:59:10;50267.25;;;-145.72;35.55
28648;BME280;17137;51.494;-0.262;2023-04-19T16:59:40;50274.65;;;-145.72;35.67
28648;BME280;17137;51.494;-0.262;2023-04-19T17:00:11;50260.22;;;-145.72;35.52
28648;BME280;17137;51.494;-0.262;2023-04-19T17:00:42;50263.18;;;-145.72;35.05
28648;BME280;17137;51.494;-0.262;2023-04-19T17:01:12;50262.44;;;-145.72;34.82
28648;BME280;17137;51.494;-0.262;2023-04-19T17:01:43;50254.06;;;-145.72;34.67
28648;BME280;17137;51.494;-0.262;2023-04-19T17:02:13;50267.87;;;-145.72;34.23
28648;BME280;17137;51.494;-0.262;2023-04-19T17:02:43;50266.39;;;-145.72;34.01
28648;BME280;17137;51.494;-0.262;2023-04-19T17:03:13;50259.36;;;-145.72;33.90
28648;BME280;17137;51.494;-0.262;2023-04-19T17:03:44;50253.08;;;-145.72;33.94
28648;BME280;17137;51.494;-0.262;2023-04-19T17:04:14;50260.10;;;-145.72;34.05
28648;BME280;17137;51.494;-0.262;2023-04-19T17:04:44;50245.80;;;-145.72;34.15
28648;BME280;17137;51.494;-0.262;2023-04-19T17:05:14;50255.17;;;-145.72;34.62
28648;BME280;17137;51.494;-0.262;2023-04-19T17:05:44;50259.24;;;-145.72;34.87
28648;BME280;17137;51.494;-0.262;2023-04-19T17:06:15;50269.47;;;-145.72;34.71
28648;BME280;17137;51.494;-0.262;2023-04-19T17:06:45;50262.94;;;-145.72;34.23
28648;BME280;17137;51.494;-0.262;2023-04-19T17:07:15;50263.92;;;-145.72;33.93
28648;BME280;17137;51.494;-0.262;2023-04-19T17:07:45;50261.70;;;-145.72;33.60
28648;BME280;17137;51.494;-0.262;2023-04-19T17:08:15;50269.84;;;-145.72;33.66
28648;BME280;17137;51.494;-0.262;2023-04-19T17:08:46;50272.06;;;-145.72;33.61
28648;BME280;17137;51.494;-0.262;2023-04-19T17:09:16;50272.80;;;-145.72;33.61
28648;BME280;17137;51.494;-0.262;2023-04-19T17:09:46;50272.06;;;-145.72;33.62
28648;BME280;17137;51.494;-0.262;2023-04-19T17:10:16;50266.88;;;-145.72;33.87
28648;BME280;17137;51.494;-0.262;2023-04-19T17:10:47;50268.11;;;-145.72;33.87
28648;BME280;17137;51.494;-0.262;2023-04-19T17:11:17;50275.14;;;-145.72;33.75
28648;BME280;17137;51.494;-0.262;2023-04-19T17:11:52;50270.58;;;-145.72;33.86
28648;BME280;17137;51.494;-0.262;2023-04-19T17:12:22;50281.18;;;-145.72;33.95
28648;BME280;17137;51.494;-0.262;2023-04-19T17:12:53;50283.40;;;-145.72;33.83
28648;BME280;17137;51.494;-0.262;2023-04-19T17:13:23;50277.24;;;-145.72;33.68
28648;BME280;17137;51.494;-0.262;2023-04-19T17:13:53;50273.91;;;-145.72;33.87
28648;BME280;17137;51.494;-0.262;2023-04-19T17:14:23;50288.21;;;-145.72;33.99
28648;BME280;17137;51.494;-0.262;2023-04-19T17:14:53;50276.00;;;-145.72;34.01
28648;BME280;17137;51.494;-0.262;2023-04-19T17:15:24;50285.99;;;-145.72;33.73
28648;BME280;17137;51.494;-0.262;2023-04-19T17:15:54;50289.93;;;-145.72;33.75
28648;BME280;17137;51.494;-0.262;2023-04-19T17:16:24;50283.65;;;-145.72;33.71
28648;BME280;17137;51.494;-0.262;2023-04-19T17:16:55;50291.17;;;-145.72;33.58
28648;BME280;17137;51.494;-0.262;2023-04-19T17:17:25;50288.33;;;-145.72;33.61
28648;BME280;17137;51.494;-0.262;2023-04-19T17:17:55;50295.97;;;-145.72;33.71
28648;BME280;17137;51.494;-0.262;2023-04-19T17:18:25;50279.33;;;-145.72;33.81
28648;BME280;17137;51.494;-0.262;2023-04-19T17:18:55;50296.96;;;-145.72;34.09
28648;BME280;17137;51.494;-0.262;2023-04-19T17:19:26;50290.06;;;-145.72;34.40
28648;BME280;17137;51.494;-0.262;2023-04-19T17:19:56;50288.82;;;-145.72;34.38
28648;BME280;17137;51.494;-0.262;2023-04-19T17:20:26;50283.65;;;-145.72;33.99
28648;BME280;17137;51.494;-0.262;2023-04-19T17:20:57;50287.84;;;-145.72;33.68
28648;BME280;17137;51.494;-0.262;2023-04-19T17:21:27;50290.18;;;-145.72;33.84
28648;BME280;17137;51.494;-0.262;2023-04-19T17:21:58;50283.52;;;-145.72;33.93
28648;BME280;17137;51.494;-0.262;2023-04-19T17:22:28;50277.36;;;-145.72;34.05
28648;BME280;17137;51.494;-0.262;2023-04-19T17:22:58;50299.05;;;-145.72;34.25
28648;BME280;17137;51.494;-0.262;2023-04-19T17:23:28;50289.93;;;-145.72;34.30
28648;BME280;17137;51.494;-0.262;2023-04-19T17:23:58;50292.15;;;-145.72;34.40
28648;BME280;17137;51.494;-0.262;2023-04-19T17:24:29;50289.81;;;-145.72;34.39
28648;BME280;17137;51.494;-0.262;2023-04-19T17:24:59;50284.51;;;-145.72;34.43
28648;BME280;17137;51.494;-0.262;2023-04-19T17:25:29;50287.34;;;-145.72;34.25
28648;BME280;17137;51.494;-0.262;2023-04-19T17:25:59;50292.64;;;-145.72;33.66
28648;BME280;17137;51.494;-0.262;2023-04-19T17:26:30;50291.41;;;-145.72;33.64
28648;BME280;17137;51.494;-0.262;2023-04-19T17:27:00;50294.00;;;-145.72;33.60
28648;BME280;17137;51.494;-0.262;2023-04-19T17:27:30;50293.75;;;-145.72;33.61
28648;BME280;17137;51.494;-0.262;2023-04-19T17:28:00;50308.05;;;-145.72;33.66
28648;BME280;17137;51.494;-0.262;2023-04-19T17:28:31;50302.51;;;-145.72;33.68
28648;BME280;17137;51.494;-0.262;2023-04-19T17:29:01;50298.44;;;-145.72;33.93
28648;BME280;17137;51.494;-0.262;2023-04-19T17:29:31;50304.23;;;-145.72;34.16
28648;BME280;17137;51.494;-0.262;2023-04-19T17:30:01;50299.05;;;-145.72;34.26
28648;BME280;17137;51.494;-0.262;2023-04-19T17:30:31;50294.25;;;-145.72;34.19
28648;BME280;17137;51.494;-0.262;2023-04-19T17:31:02;50299.05;;;-145.72;33.82
28648;BME280;17137;51.494;-0.262;2023-04-19T17:31:32;50310.27;;;-145.72;34.09
28648;BME280;17137;51.494;-0.262;2023-04-19T17:32:02;50325.31;;;-145.72;34.21
28648;BME280;17137;51.494;-0.262;2023-04-19T17:32:33;50314.34;;;-145.72;34.17
28648;BME280;17137;51.494;-0.262;2023-04-19T17:33:03;50316.44;;;-145.72;34.32
28648;BME280;17137;51.494;-0.262;2023-04-19T17:33:33;50310.40;;;-145.72;34.48
28648;BME280;17137;51.494;-0.262;2023-04-19T17:34:03;50295.97;;;-145.72;34.57
28648;BME280;17137;51.494;-0.262;2023-04-19T17:34:34;50287.47;;;-145.72;34.74
28648;BME280;17137;51.494;-0.262;2023-04-19T17:35:05;50304.48;;;-145.72;34.64
28648;BME280;17137;51.494;-0.262;2023-04-19T17:35:35;50304.35;;;-145.72;34.49
28648;BME280;17137;51.494;-0.262;2023-04-19T17:36:06;50310.76;;;-145.72;34.38
28648;BME280;17137;51.494;-0.262;2023-04-19T17:36:36;50313.48;;;-145.72;34.50
28648;BME280;17137;51.494;-0.262;2023-04-19T17:37:06;50302.01;;;-145.72;34.58
28648;BME280;17137;51.494;-0.262;2023-04-19T17:37:37;50303.62;;;-145.72;34.73
28648;BME280;17137;51.494;-0.262;2023-04-19T17:38:07;50309.53;;;-145.72;34.92
28648;BME280;17137;51.494;-0.262;2023-04-19T17:38:37;50315.94;;;-145.72;35.01
28648;BME280;17137;51.494;-0.262;2023-04-19T17:39:07;50300.90;;;-145.72;35.04
28648;BME280;17137;51.494;-0.262;2023-04-19T17:39:38;50300.29;;;-145.72;35.15
28648;BME280;17137;51.494;-0.262;2023-04-19T17:40:09;50311.87;;;-145.72;35.24
28648;BME280;17137;51.494;-0.262;2023-04-19T17:40:39;50305.09;;;-145.72;35.16
28648;BME280;17137;51.494;-0.262;2023-04-19T17:41:09;50297.45;;;-145.72;35.11
28648;BME280;17137;51.494;-0.262;2023-04-19T17:41:40;50302.88;;;-145.72;35.16
28648;BME280;17137;51.494;-0.262;2023-04-19T17:42:10;50292.77;;;-145.72;35.22
28648;BME280;17137;51.494;-0.262;2023-04-19T17:42:40;50301.89;;;-145.72;35.25
28648;BME280;17137;51.494;-0.262;2023-04-19T17:43:11;50310.15;;;-145.72;35.45
28648;BME280;17137;51.494;-0.262;2023-04-19T17:43:41;50298.19;;;-145.72;35.43
28648;BME280;17137;51.494;-0.262;2023-04-19T17:44:11;50303.25;;;-145.72;35.36
28648;BME280;17137;51.494;-0.262;2023-04-19T17:44:41;50305.09;;;-145.72;35.42
28648;BME280;17137;51.494;-0.262;2023-04-19T17:45:11;50303.12;;;-145.72;35.45
28648;BME280;17137;51.494;-0.262;2023-04-19T17:45:41;50314.09;;;-145.72;35.43
28648;BME280;17137;51.494;-0.262;2023-04-19T17:46:12;50314.09;;;-145.72;35.44
28648;BME280;17137;51.494;-0.262;2023-04-19T17:46:42;50303.99;;;-145.72;35.38
28648;BME280;17137;51.494;-0.262;2023-04-19T17:47:13;50303.86;;;-145.72;35.23
28648;BME280;17137;51.494;-0.262;2023-04-19T17:47:43;50314.71;;;-145.72;35.07
28648;BME280;17137;51.494;-0.262;2023-04-19T17:48:13;50308.05;;;-145.72;35.17
28648;BME280;17137;51.494;-0.262;2023-04-19T17:48:43;50302.88;;;-145.72;35.26
28648;BME280;17137;51.494;-0.262;2023-04-19T17:49:13;50309.66;;;-145.72;35.22
28648;BME280;17137;51.494;-0.262;2023-04-19T17:49:45;50309.16;;;-145.72;35.22